Time;durP1;ratioP1;P1;durP2;ratioP2;P2;SDS_P1;SDS_P2;PMS_P1;PMS_P2;Temp;Humidity;BMP_temperature;BMP_pressure;BME280_temperature;BME280_humidity;BME280_pressure;Samples;Min_cycle;Max_cycle;Signal;HPM_P1;HPM_P2
2022/04/21 00:00:07;;;;;;;9.80;5.67;;;13.60;53.00;;;;;;5012194;28;20435;-73
2022/04/21 00:02:33;;;;;;;5.83;5.23;;;13.80;52.80;;;;;;4993276;28;20274;-73
2022/04/21 00:04:59;;;;;;;6.73;5.40;;;13.80;52.90;;;;;;5008249;28;23036;-72
2022/04/21 00:07:25;;;;;;;6.10;5.50;;;13.80;53.00;;;;;;5015885;28;20438;-73
2022/04/21 00:09:51;;;;;;;5.43;4.93;;;13.70;53.10;;;;;;5009743;28;20432;-72
2022/04/21 00:12:17;;;;;;;6.20;5.60;;;13.80;53.10;;;;;;5010873;28;20267;-74
2022/04/21 00:14:42;;;;;;;7.13;5.70;;;13.80;53.20;;;;;;5013073;28;20447;-73
2022/04/21 00:17:08;;;;;;;6.00;5.40;;;13.90;53.20;;;;;;5012186;28;20208;-72
2022/04/21 00:19:35;;;;;;;6.50;5.23;;;13.50;53.50;;;;;;5014420;28;20223;-73
2022/04/21 00:24:44;;;;;;;6.53;5.90;;;13.40;54.10;;;;;;5009667;28;20458;-72
2022/04/21 00:27:10;;;;;;;5.23;4.73;;;13.50;54.20;;;;;;5011334;28;20446;-72
2022/04/21 00:29:36;;;;;;;8.30;5.60;;;13.60;54.10;;;;;;5011879;28;20656;-73
2022/04/21 00:32:02;;;;;;;7.13;5.37;;;13.60;54.10;;;;;;5007099;28;20939;-73
2022/04/21 00:34:27;;;;;;;7.83;5.40;;;13.50;54.40;;;;;;5012324;28;20621;-73
2022/04/21 00:36:53;;;;;;;7.20;6.50;;;13.60;54.30;;;;;;5018341;28;20267;-74
2022/04/21 00:39:19;;;;;;;9.23;5.50;;;13.60;54.40;;;;;;5010366;28;20184;-72
2022/04/21 00:41:44;;;;;;;7.37;6.50;;;13.40;54.80;;;;;;5010424;28;20217;-72
2022/04/21 00:44:10;;;;;;;8.03;6.90;;;13.40;54.90;;;;;;5008887;28;20212;-73
2022/04/21 00:46:38;;;;;;;10.97;7.90;;;13.30;55.40;;;;;;5011089;28;20316;-73
2022/04/21 00:49:05;;;;;;;14.10;7.97;;;13.30;55.60;;;;;;5012129;28;20190;-72
2022/04/21 00:51:31;;;;;;;7.30;6.50;;;13.30;55.50;;;;;;5011955;28;20594;-73
2022/04/21 00:53:57;;;;;;;9.00;6.03;;;13.30;55.60;;;;;;5009443;28;21661;-72
2022/04/21 00:56:23;;;;;;;8.20;6.53;;;13.30;55.80;;;;;;5012253;28;20435;-71
2022/04/21 00:58:49;;;;;;;8.13;6.40;;;13.30;56.30;;;;;;5017568;28;20426;-72
2022/04/21 01:03:59;;;;;;;10.43;5.43;;;13.30;56.00;;;;;;5016627;28;20214;-73
2022/04/21 01:06:25;;;;;;;8.83;5.80;;;13.30;56.30;;;;;;5014391;28;20435;-71
2022/04/21 01:08:50;;;;;;;5.70;5.10;;;13.30;56.50;;;;;;5017363;28;20183;-72
2022/04/21 01:11:18;;;;;;;5.73;5.10;;;13.30;56.60;;;;;;5014736;28;20250;-72
2022/04/21 01:13:44;;;;;;;6.90;6.20;;;13.40;56.60;;;;;;5020114;28;20671;-72
2022/04/21 01:16:09;;;;;;;6.60;6.00;;;13.10;56.80;;;;;;5020556;28;20438;-73
2022/04/21 01:18:35;;;;;;;7.10;5.90;;;12.80;57.50;;;;;;5020945;28;20791;-72
2022/04/21 01:21:00;;;;;;;6.27;5.67;;;12.90;57.60;;;;;;5022917;28;20241;-72
2022/04/21 01:23:26;;;;;;;8.53;6.83;;;12.90;57.60;;;;;;5018742;28;20238;-73
2022/04/21 01:25:53;;;;;;;6.97;5.50;;;12.80;57.90;;;;;;5022106;28;20180;-71
2022/04/21 01:28:19;;;;;;;6.33;5.73;;;12.90;58.10;;;;;;5018997;28;20643;-72
2022/04/21 01:30:45;;;;;;;7.10;5.80;;;12.90;58.00;;;;;;5020150;28;20811;-73
2022/04/21 01:33:11;;;;;;;6.47;5.87;;;12.90;58.00;;;;;;5024832;28;20456;-71
2022/04/21 01:35:37;;;;;;;7.53;6.03;;;12.90;58.00;;;;;;5021553;28;20188;-71
2022/04/21 01:43:32;;;;;;;6.60;5.90;;;12.80;58.60;;;;;;5019112;28;20466;-71
2022/04/21 01:45:58;;;;;;;11.50;6.57;;;12.80;58.60;;;;;;5022739;28;20427;-74
2022/04/21 01:48:24;;;;;;;5.90;5.30;;;12.90;58.60;;;;;;5023347;28;20184;-71
2022/04/21 01:50:49;;;;;;;7.37;6.30;;;12.80;58.50;;;;;;5022210;28;20251;-72
2022/04/21 01:53:15;;;;;;;6.57;5.97;;;12.70;58.70;;;;;;5015544;28;20693;-73
2022/04/21 01:55:41;;;;;;;6.80;6.17;;;12.80;58.90;;;;;;5016841;28;20675;-72
2022/04/21 01:58:06;;;;;;;7.27;6.57;;;12.80;58.90;;;;;;5015479;28;20191;-73
2022/04/21 02:00:32;;;;;;;8.27;5.90;;;12.70;59.00;;;;;;5015082;28;20176;-73
2022/04/21 02:02:57;;;;;;;6.30;5.70;;;12.80;59.10;;;;;;5014353;28;20204;-72
2022/04/21 02:05:23;;;;;;;7.00;5.27;;;12.80;59.00;;;;;;5018363;28;20276;-72
2022/04/21 02:07:49;;;;;;;6.60;5.90;;;12.50;59.50;;;;;;5014802;28;20982;-72
2022/04/21 02:10:18;;;;;;;7.10;6.20;;;12.40;60.40;;;;;;5017470;28;20184;-72
2022/04/21 02:12:45;;;;;;;7.83;6.90;;;12.30;60.40;;;;;;5018394;28;20451;-72
2022/04/21 02:15:11;;;;;;;6.57;5.83;;;12.00;61.60;;;;;;5013194;28;20443;-72
2022/04/21 02:17:37;;;;;;;7.90;6.97;;;12.10;61.70;;;;;;5017159;28;20539;-72
2022/04/21 02:20:08;;;;;;;6.53;5.90;;;12.20;61.50;;;;;;5019344;28;20465;-72
2022/04/21 02:22:37;;;;;;;6.30;5.70;;;12.30;61.00;;;;;;5018072;28;20470;-71
2022/04/21 02:25:04;;;;;;;6.17;5.67;;;12.30;60.70;;;;;;5015149;28;20490;-72
2022/04/21 02:27:30;;;;;;;9.93;5.70;;;12.20;61.90;;;;;;5016086;28;20497;-73
2022/04/21 02:29:56;;;;;;;8.20;6.83;;;12.20;61.60;;;;;;5014105;28;20430;-73
2022/04/21 02:32:22;;;;;;;6.67;5.40;;;12.00;62.20;;;;;;5015732;28;20456;-72
2022/04/21 02:34:48;;;;;;;7.10;6.40;;;12.10;62.20;;;;;;5016720;28;20191;-73
2022/04/21 02:37:13;;;;;;;6.97;6.30;;;12.00;62.50;;;;;;5015000;28;20185;-73
2022/04/21 02:39:39;;;;;;;7.60;6.80;;;12.10;62.70;;;;;;5017284;28;20255;-74
2022/04/21 02:42:05;;;;;;;9.03;6.83;;;11.90;62.90;;;;;;5004865;28;20282;-72
2022/04/21 02:44:31;;;;;;;7.30;6.60;;;12.00;63.20;;;;;;5011030;28;20212;-72
2022/04/21 02:46:59;;;;;;;7.10;6.40;;;11.80;63.60;;;;;;5012173;28;20439;-72
2022/04/21 02:49:25;;;;;;;13.50;7.03;;;11.90;63.90;;;;;;5014122;28;20454;-72
2022/04/21 02:51:51;;;;;;;7.50;6.57;;;12.00;63.60;;;;;;5012229;28;20502;-72
2022/04/21 02:57:20;;;;;;;6.90;6.30;;;11.80;63.80;;;;;;5012690;28;20207;-72
2022/04/21 02:59:55;;;;;;;7.83;7.13;;;11.90;64.30;;;;;;5012032;28;20445;-73
2022/04/21 03:02:22;;;;;;;7.40;6.70;;;12.00;64.20;;;;;;5012997;28;20447;-73
2022/04/21 03:04:49;;;;;;;7.97;7.20;;;11.80;64.20;;;;;;5013848;28;20467;-72
2022/04/21 03:07:17;;;;;;;7.93;7.23;;;11.70;65.00;;;;;;5016829;28;21008;-75
2022/04/21 03:09:46;;;;;;;7.40;6.37;;;11.80;65.00;;;;;;5017570;28;20430;-75
2022/04/21 03:12:12;;;;;;;7.37;6.77;;;11.80;65.10;;;;;;5013766;28;20447;-72
2022/04/21 03:14:40;;;;;;;8.27;7.47;;;11.80;65.20;;;;;;5014515;28;20489;-72
2022/04/21 03:17:08;;;;;;;9.33;7.23;;;11.70;65.40;;;;;;5010970;28;20467;-71
2022/04/21 03:19:34;;;;;;;7.70;6.90;;;11.70;65.50;;;;;;5011851;28;20485;-74
2022/04/21 03:24:45;;;;;;;9.37;7.00;;;11.60;66.00;;;;;;5015592;28;20466;-72
2022/04/21 03:27:12;;;;;;;7.47;6.77;;;11.50;66.50;;;;;;5010348;28;20501;-72
2022/04/21 03:29:38;;;;;;;7.90;7.10;;;11.60;66.40;;;;;;5012399;28;20494;-71
2022/04/21 03:32:09;;;;;;;9.73;7.57;;;11.60;66.70;;;;;;5013542;28;20612;-74
2022/04/21 03:34:42;;;;;;;7.40;6.67;;;11.50;67.10;;;;;;5014958;28;20451;-74
2022/04/21 03:37:09;;;;;;;13.40;7.50;;;11.40;67.40;;;;;;5010206;28;20479;-75
2022/04/21 03:39:36;;;;;;;7.87;7.17;;;11.40;67.50;;;;;;5014032;28;20516;-76
2022/04/21 03:42:06;;;;;;;8.00;7.20;;;11.30;67.70;;;;;;5015501;28;20455;-74
2022/04/21 03:44:32;;;;;;;8.00;7.20;;;11.30;68.30;;;;;;5009282;28;20470;-74
2022/04/21 03:46:58;;;;;;;11.87;7.27;;;11.30;68.10;;;;;;5012610;28;20526;-75
2022/04/21 03:49:28;;;;;;;8.17;7.47;;;11.40;68.30;;;;;;5013676;28;20467;-73
2022/04/21 03:51:55;;;;;;;7.90;7.10;;;11.40;68.10;;;;;;5014784;28;20455;-75
2022/04/21 03:54:20;;;;;;;8.47;7.60;;;11.40;68.00;;;;;;5010000;28;20972;-74
2022/04/21 03:56:46;;;;;;;7.70;6.90;;;11.30;68.50;;;;;;5010197;28;20439;-76
2022/04/21 03:59:12;;;;;;;8.77;7.27;;;11.30;68.60;;;;;;5012414;28;20669;-75
2022/04/21 04:01:38;;;;;;;8.50;7.70;;;11.20;68.80;;;;;;5016024;28;20204;-73
2022/04/21 04:04:04;;;;;;;9.07;7.53;;;11.20;69.20;;;;;;5011313;28;20204;-73
2022/04/21 04:11:59;;;;;;;10.23;7.80;;;11.10;70.20;;;;;;5011200;28;20461;-73
2022/04/21 04:14:25;;;;;;;8.20;7.50;;;11.10;70.30;;;;;;5013229;28;20473;-75
2022/04/21 04:16:52;;;;;;;8.77;7.87;;;10.80;71.10;;;;;;5010376;28;20439;-76
2022/04/21 04:19:17;;;;;;;11.60;8.53;;;10.90;71.70;;;;;;5013405;28;20431;-75
2022/04/21 04:21:43;;;;;;;10.90;8.20;;;10.80;71.30;;;;;;5009390;28;20571;-74
2022/04/21 04:24:09;;;;;;;10.40;8.03;;;10.80;71.50;;;;;;5010687;28;20200;-75
2022/04/21 04:26:34;;;;;;;9.10;8.10;;;10.80;72.10;;;;;;5012707;28;20176;-76
2022/04/21 04:29:02;;;;;;;8.87;8.07;;;10.80;71.90;;;;;;5013271;28;20234;-74
2022/04/21 04:31:28;;;;;;;11.27;7.97;;;10.80;72.60;;;;;;5015811;28;20287;-74
2022/04/21 04:33:53;;;;;;;10.47;8.70;;;10.90;72.10;;;;;;5018734;28;21020;-74
2022/04/21 04:36:19;;;;;;;8.37;7.53;;;10.90;72.20;;;;;;5020941;28;20238;-74
2022/04/21 04:38:45;;;;;;;9.83;7.37;;;10.90;72.70;;;;;;5021566;28;20219;-77
2022/04/21 04:43:56;;;;;;;8.17;7.40;;;10.90;73.10;;;;;;5016347;28;20460;-76
2022/04/21 04:46:40;;;;;;;9.33;8.43;;;10.80;73.10;;;;;;5019727;28;20427;-75
2022/04/21 04:49:07;;;;;;;8.90;8.10;;;10.80;73.60;;;;;;5019321;28;20191;-76
2022/04/21 04:51:34;;;;;;;9.13;8.23;;;10.80;73.50;;;;;;5017004;28;20464;-74
2022/04/21 04:54:01;;;;;;;9.63;8.50;;;10.80;73.70;;;;;;5014398;28;20427;-76
2022/04/21 04:56:29;;;;;;;10.00;9.00;;;10.90;73.80;;;;;;5020347;28;20435;-74
2022/04/21 04:58:56;;;;;;;10.13;8.33;;;10.90;73.80;;;;;;5016477;28;20437;-75
2022/04/21 05:01:42;;;;;;;10.27;8.70;;;10.90;73.70;;;;;;5016971;28;20465;-74
2022/04/21 05:04:09;;;;;;;9.87;8.23;;;10.90;74.00;;;;;;5015786;28;20462;-74
2022/04/21 05:06:37;;;;;;;11.20;9.73;;;10.90;74.10;;;;;;5021662;28;20517;-76
2022/04/21 05:09:04;;;;;;;8.87;7.97;;;10.80;74.70;;;;;;5013707;28;20427;-73
2022/04/21 05:11:29;;;;;;;10.17;9.13;;;10.70;74.80;;;;;;5018265;28;20903;-74
2022/04/21 05:13:55;;;;;;;9.67;8.67;;;10.80;75.10;;;;;;5018522;28;20529;-76
2022/04/21 05:16:21;;;;;;;10.50;9.07;;;10.80;75.20;;;;;;5016829;28;20995;-75
2022/04/21 05:18:49;;;;;;;9.50;8.23;;;10.80;75.10;;;;;;5024231;28;20191;-73
2022/04/21 05:21:15;;;;;;;9.23;8.23;;;10.80;75.40;;;;;;5025245;28;21088;-76
2022/04/21 05:23:44;;;;;;;9.60;8.70;;;10.80;75.70;;;;;;5039756;28;20882;-74
2022/04/21 05:26:10;;;;;;;11.07;8.40;;;10.80;75.60;;;;;;5018001;28;20454;-74
2022/04/21 05:28:36;;;;;;;12.00;8.60;;;10.80;75.80;;;;;;5020387;28;21114;-76
2022/04/21 05:31:02;;;;;;;10.63;8.17;;;10.90;75.90;;;;;;5017312;28;20242;-76
2022/04/21 05:33:29;;;;;;;9.70;8.80;;;10.90;76.00;;;;;;5019310;28;21282;-71
2022/04/21 05:35:57;;;;;;;10.07;9.17;;;11.00;76.20;;;;;;5024110;28;20485;-73
2022/04/21 05:38:24;;;;;;;10.47;9.50;;;10.80;76.60;;;;;;5019369;28;20434;-71
2022/04/21 05:40:50;;;;;;;10.23;8.90;;;10.80;77.10;;;;;;5018319;28;20459;-72
2022/04/21 05:43:18;;;;;;;9.83;8.80;;;10.70;77.50;;;;;;5019915;28;21752;-73
2022/04/21 05:45:48;;;;;;;10.43;8.43;;;10.60;78.90;;;;;;5007779;28;20460;-71
2022/04/21 05:48:15;;;;;;;12.00;9.00;;;10.70;78.80;;;;;;5015244;28;20968;-74
2022/04/21 05:50:47;;;;;;;17.00;9.10;;;10.70;78.40;;;;;;5011425;28;20805;-72
2022/04/21 05:53:24;;;;;;;10.00;8.93;;;10.80;78.50;;;;;;5006393;28;21172;-72
2022/04/21 05:55:51;;;;;;;10.83;9.20;;;10.80;78.20;;;;;;5001167;28;20457;-75
2022/04/21 05:58:17;;;;;;;13.37;10.43;;;10.90;78.50;;;;;;5011284;28;20521;-73
2022/04/21 06:00:43;;;;;;;9.43;8.53;;;10.90;78.30;;;;;;5006939;28;20443;-75
2022/04/21 06:03:11;;;;;;;11.13;9.73;;;10.80;78.70;;;;;;5010091;28;20460;-75
2022/04/21 06:05:37;;;;;;;11.23;9.90;;;10.90;79.40;;;;;;4999394;28;20483;-72
2022/04/21 06:08:06;;;;;;;10.13;9.20;;;10.80;79.80;;;;;;5016582;28;21016;-75
2022/04/21 06:10:32;;;;;;;11.60;9.87;;;10.80;80.20;;;;;;5017515;28;20419;-75
2022/04/21 06:12:58;;;;;;;10.23;8.77;;;10.80;80.40;;;;;;5013922;28;20617;-72
2022/04/21 06:15:23;;;;;;;10.83;9.70;;;11.00;80.00;;;;;;5015145;28;21147;-74
2022/04/21 06:17:49;;;;;;;10.40;9.40;;;11.00;80.30;;;;;;5014281;28;20189;-72
2022/04/21 06:20:15;;;;;;;12.00;10.30;;;11.00;80.20;;;;;;5014298;28;20659;-71
2022/04/21 06:22:40;;;;;;;10.77;9.80;;;10.80;80.50;;;;;;5013404;28;20210;-73
2022/04/21 06:25:06;;;;;;;11.93;10.73;;;10.90;80.70;;;;;;5018135;28;20287;-74
2022/04/21 06:27:32;;;;;;;13.33;10.63;;;11.00;80.90;;;;;;5020145;28;20250;-73
2022/04/21 06:29:59;;;;;;;11.60;10.40;;;11.10;80.50;;;;;;5018668;28;21379;-74
2022/04/21 06:32:25;;;;;;;12.63;10.40;;;11.20;80.60;;;;;;5020329;28;20201;-72
2022/04/21 06:34:50;;;;;;;11.00;9.87;;;11.20;80.50;;;;;;5015176;28;20445;-74
2022/04/21 06:37:16;;;;;;;16.20;11.20;;;11.30;80.40;;;;;;5008998;28;20443;-73
2022/04/21 06:39:42;;;;;;;12.60;10.00;;;11.30;80.50;;;;;;5015680;28;20188;-72
2022/04/21 06:42:07;;;;;;;12.07;10.40;;;11.40;80.20;;;;;;5014465;28;20218;-74
2022/04/21 06:50:01;;;;;;;13.87;10.83;;;11.60;79.90;;;;;;5012931;28;21199;-72
2022/04/21 06:52:27;;;;;;;11.57;10.37;;;11.70;80.20;;;;;;5013409;28;20451;-76
2022/04/21 06:54:53;;;;;;;14.07;11.87;;;11.70;79.90;;;;;;5008594;28;21466;-74
2022/04/21 06:57:19;;;;;;;13.63;12.13;;;11.70;79.60;;;;;;5011472;28;20439;-71
2022/04/21 06:59:45;;;;;;;12.60;11.30;;;11.70;79.90;;;;;;5017193;28;20188;-74
2022/04/21 07:02:12;;;;;;;11.57;10.40;;;11.70;79.60;;;;;;5016671;28;20466;-74
2022/04/21 07:04:38;;;;;;;11.30;10.10;;;11.80;79.50;;;;;;5017983;28;20342;-73
2022/04/21 07:07:04;;;;;;;13.10;11.70;;;11.80;79.10;;;;;;5012969;28;22044;-73
2022/04/21 07:09:30;;;;;;;14.07;11.60;;;11.70;79.50;;;;;;5016195;28;20194;-72
2022/04/21 07:11:55;;;;;;;15.40;10.70;;;11.90;80.00;;;;;;5015717;28;20948;-72
2022/04/21 07:14:21;;;;;;;14.13;11.80;;;12.00;79.00;;;;;;5019699;28;20339;-72
2022/04/21 07:16:46;;;;;;;12.80;11.00;;;12.20;78.50;;;;;;5013274;28;20200;-72
2022/04/21 07:19:12;;;;;;;14.87;12.33;;;12.20;77.90;;;;;;5015861;28;20196;-72
2022/04/21 07:21:37;;;;;;;12.60;11.30;;;12.40;77.70;;;;;;5020235;28;20216;-72
2022/04/21 07:24:03;;;;;;;12.60;11.30;;;12.40;77.70;;;;;;5020552;28;20212;-72
2022/04/21 07:26:29;;;;;;;12.53;11.23;;;12.40;77.30;;;;;;5016629;28;20184;-73
2022/04/21 07:28:55;;;;;;;12.43;10.67;;;12.50;76.80;;;;;;5019578;28;20191;-72
2022/04/21 07:31:21;;;;;;;13.37;11.73;;;12.60;76.50;;;;;;5020717;28;20207;-72
2022/04/21 07:33:46;;;;;;;12.43;11.13;;;12.60;76.60;;;;;;5019652;28;20195;-72
2022/04/21 07:36:15;;;;;;;12.43;11.10;;;12.80;76.10;;;;;;5016860;28;20238;-73
2022/04/21 07:38:40;;;;;;;14.27;12.20;;;12.70;75.40;;;;;;5020853;28;20211;-73
2022/04/21 07:41:06;;;;;;;14.97;11.73;;;12.80;75.50;;;;;;5018402;28;20799;-73
2022/04/21 07:43:33;;;;;;;13.97;12.40;;;12.70;74.90;;;;;;5019480;28;20184;-73
2022/04/21 07:45:58;;;;;;;12.80;11.50;;;12.80;75.60;;;;;;5018310;28;20176;-72
2022/04/21 07:49:44;;;;;;;12.67;11.43;;;12.80;75.50;;;;;;5020832;28;21216;-72
2022/04/21 07:51:10;;;;;;;32.03;25.40;;;12.90;75.30;;;;;;5017774;28;20189;-73
2022/04/21 07:53:35;;;;;;;15.30;13.80;;;13.00;75.70;;;;;;5020033;28;20423;-72
2022/04/21 07:56:01;;;;;;;17.50;11.77;;;13.00;76.10;;;;;;5018077;28;20189;-72
2022/04/21 07:58:27;;;;;;;15.77;12.80;;;13.00;76.30;;;;;;5010235;28;20185;-72
2022/04/21 08:00:52;;;;;;;14.20;12.70;;;13.10;75.10;;;;;;5013218;28;20173;-72
2022/04/21 08:03:19;;;;;;;15.03;13.43;;;13.10;74.60;;;;;;5016780;28;20423;-72
2022/04/21 08:05:45;;;;;;;12.20;10.83;;;13.20;74.30;;;;;;5017028;28;20215;-72
2022/04/21 08:08:11;;;;;;;13.30;11.90;;;13.30;74.40;;;;;;5019757;28;20423;-72
2022/04/21 08:10:37;;;;;;;13.70;12.00;;;13.40;73.60;;;;;;5016653;28;20439;-72
2022/04/21 08:13:02;;;;;;;13.73;12.30;;;13.50;73.00;;;;;;5018769;28;20223;-72
2022/04/21 08:15:30;;;;;;;13.23;11.83;;;13.50;71.40;;;;;;5017051;28;20181;-72
2022/04/21 08:17:59;;;;;;;12.83;11.50;;;13.60;70.90;;;;;;5018464;28;20227;-71
2022/04/21 08:20:26;;;;;;;12.83;11.63;;;13.60;70.50;;;;;;5018904;28;21916;-72
2022/04/21 08:22:52;;;;;;;14.00;11.57;;;13.70;69.30;;;;;;5013342;28;20467;-73
2022/04/21 08:33:32;;;;;;;14.47;12.13;;;13.70;70.10;;;;;;5017999;28;20489;-72
2022/04/21 08:35:58;;;;;;;14.30;12.10;;;13.70;70.30;;;;;;5016390;28;20443;-72
2022/04/21 08:38:28;;;;;;;14.00;12.60;;;13.70;69.00;;;;;;5016550;28;20442;-72
2022/04/21 08:40:56;;;;;;;14.47;12.60;;;13.70;68.50;;;;;;5011989;28;20455;-72
2022/04/21 08:43:23;;;;;;;14.50;11.37;;;13.90;68.30;;;;;;5017507;28;20426;-72
2022/04/21 08:45:51;;;;;;;14.03;12.27;;;13.90;67.80;;;;;;5015611;28;20548;-73
2022/04/21 08:48:19;;;;;;;14.23;12.50;;;14.00;67.20;;;;;;5014294;28;20432;-73
2022/04/21 08:50:45;;;;;;;12.27;11.07;;;14.10;67.40;;;;;;5016419;28;20431;-72
2022/04/21 08:53:17;;;;;;;16.67;14.13;;;14.20;66.90;;;;;;5018010;28;20468;-72
2022/04/21 08:55:44;;;;;;;14.33;12.90;;;14.20;66.50;;;;;;5013820;28;20807;-73
2022/04/21 08:58:11;;;;;;;16.17;14.47;;;14.20;66.40;;;;;;5019329;28;21251;-73
2022/04/21 09:00:37;;;;;;;15.03;13.43;;;14.20;66.90;;;;;;5018450;28;20926;-72
2022/04/21 09:03:07;;;;;;;15.33;13.77;;;14.30;66.90;;;;;;5020614;28;20458;-72
2022/04/21 09:05:33;;;;;;;14.37;12.53;;;14.30;66.50;;;;;;5019649;28;20254;-73
2022/04/21 09:08:00;;;;;;;13.20;11.80;;;14.40;66.30;;;;;;5013460;28;21280;-72
2022/04/21 09:10:34;;;;;;;13.07;11.87;;;14.40;66.40;;;;;;5019490;28;20427;-73
2022/04/21 09:13:02;;;;;;;13.57;12.07;;;14.50;66.40;;;;;;5016505;28;20442;-73
2022/04/21 09:15:32;;;;;;;12.80;11.60;;;14.70;65.50;;;;;;5016581;28;20968;-72
2022/04/21 09:18:08;;;;;;;17.37;11.93;;;14.70;65.70;;;;;;5021487;28;20586;-72
2022/04/21 09:20:36;;;;;;;14.93;11.47;;;14.80;64.20;;;;;;5022753;28;20484;-72
2022/04/21 09:23:05;;;;;;;13.00;11.70;;;14.80;63.80;;;;;;5019094;28;20510;-72
2022/04/21 09:25:42;;;;;;;17.53;15.67;;;14.80;63.70;;;;;;5022783;28;20498;-72
2022/04/21 09:28:25;;;;;;;20.80;10.77;;;14.90;64.10;;;;;;5012393;28;20431;-70
2022/04/21 09:31:00;;;;;;;15.20;13.70;;;14.90;63.10;;;;;;5013977;28;20509;-70
2022/04/21 09:33:40;;;;;;;14.07;11.07;;;15.00;63.00;;;;;;5020796;28;20427;-72
2022/04/21 09:36:07;;;;;;;12.60;11.30;;;15.00;62.00;;;;;;5020785;28;20522;-71
2022/04/21 09:38:34;;;;;;;13.93;12.07;;;15.00;62.50;;;;;;5018672;28;21083;-70
2022/04/21 09:41:10;;;;;;;11.93;10.73;;;15.10;62.30;;;;;;5019193;28;20820;-70
2022/04/21 09:43:37;;;;;;;11.63;10.43;;;15.10;63.30;;;;;;5022974;28;20485;-70
2022/04/21 09:46:12;;;;;;;12.27;10.40;;;15.10;63.30;;;;;;5017123;28;20432;-71
2022/04/21 09:48:38;;;;;;;12.63;10.83;;;15.20;62.60;;;;;;5012785;28;20435;-69
2022/04/21 09:51:12;;;;;;;12.70;11.50;;;15.30;62.70;;;;;;5018573;28;20442;-70
2022/04/21 09:53:51;;;;;;;12.63;11.43;;;15.40;62.90;;;;;;5017867;28;20519;-71
2022/04/21 09:56:18;;;;;;;12.53;10.57;;;15.40;63.70;;;;;;5024614;28;20803;-72
2022/04/21 09:58:46;;;;;;;11.47;10.37;;;15.40;64.10;;;;;;5020615;28;20887;-71
2022/04/21 10:01:12;;;;;;;11.40;10.20;;;15.50;65.00;;;;;;5021006;28;21238;-72
2022/04/21 10:03:41;;;;;;;11.90;10.47;;;15.70;64.40;;;;;;5019085;28;20416;-70
2022/04/21 10:06:07;;;;;;;11.47;10.47;;;15.70;63.40;;;;;;5021899;28;20184;-70
2022/04/21 10:08:34;;;;;;;9.67;8.73;;;15.70;63.90;;;;;;5020387;28;20513;-70
2022/04/21 10:11:00;;;;;;;10.20;8.10;;;15.80;62.50;;;;;;5022561;28;20419;-71
2022/04/21 10:13:26;;;;;;;8.40;7.17;;;15.90;62.80;;;;;;5021620;28;20431;-70
2022/04/21 10:15:52;;;;;;;8.90;6.97;;;16.10;61.90;;;;;;5021750;28;20298;-71
2022/04/21 10:18:18;;;;;;;7.63;6.93;;;16.00;61.10;;;;;;5021246;28;20455;-72
2022/04/21 10:20:45;;;;;;;9.50;7.20;;;16.10;61.40;;;;;;5020304;28;20493;-70
2022/04/21 10:23:16;;;;;;;8.57;7.17;;;16.10;61.40;;;;;;5020961;28;20455;-70
2022/04/21 10:25:43;;;;;;;8.10;6.23;;;16.20;61.70;;;;;;5024308;28;20476;-70
2022/04/21 10:28:37;;;;;;;6.57;5.73;;;16.30;59.70;;;;;;5021575;28;20452;-70
2022/04/21 10:31:25;;;;;;;6.63;6.03;;;16.20;59.70;;;;;;5018368;28;20497;-72
2022/04/21 10:34:17;;;;;;;7.90;6.37;;;16.30;60.20;;;;;;5023439;28;20836;-71
2022/04/21 10:36:52;;;;;;;7.63;6.83;;;16.40;60.00;;;;;;5019896;28;20446;-71
2022/04/21 10:39:18;;;;;;;9.83;5.27;;;16.50;59.80;;;;;;5022151;28;20431;-72
2022/04/21 10:41:45;;;;;;;5.10;4.70;;;16.60;58.70;;;;;;5019432;28;20515;-71
2022/04/21 10:44:26;;;;;;;8.33;4.90;;;16.60;59.40;;;;;;5021834;28;20205;-71
2022/04/21 10:47:35;;;;;;;4.50;4.10;;;16.70;58.80;;;;;;5019841;28;20526;-72
2022/04/21 10:50:00;;;;;;;4.93;4.43;;;16.80;57.80;;;;;;4956348;28;20528;-71
2022/04/21 10:58:34;;;;;;;4.83;4.43;;;17.30;57.80;;;;;;5023414;28;20782;-71
2022/04/21 11:01:13;;;;;;;6.10;5.60;;;17.30;58.00;;;;;;5019766;28;20978;-71
2022/04/21 11:03:39;;;;;;;4.90;4.50;;;17.40;57.80;;;;;;5022319;28;20423;-69
2022/04/21 11:06:06;;;;;;;5.10;4.60;;;17.50;57.30;;;;;;5021946;28;20431;-69
2022/04/21 11:08:32;;;;;;;4.03;3.70;;;17.40;56.90;;;;;;5017527;28;20550;-70
2022/04/21 11:10:58;;;;;;;4.83;4.43;;;17.50;56.90;;;;;;5016310;28;20522;-70
2022/04/21 11:13:49;;;;;;;4.80;4.23;;;17.60;56.70;;;;;;5020611;28;20165;-71
2022/04/21 11:16:54;;;;;;;4.80;4.30;;;17.80;57.30;;;;;;5019886;28;20938;-70
2022/04/21 11:19:29;;;;;;;4.77;4.37;;;18.10;57.00;;;;;;5017350;28;20446;-70
2022/04/21 11:22:05;;;;;;;5.87;5.13;;;18.20;56.20;;;;;;5012591;28;20560;-70
2022/04/21 11:24:56;;;;;;;5.13;4.70;;;18.10;55.90;;;;;;5017610;28;20478;-71
2022/04/21 11:27:22;;;;;;;6.57;5.17;;;18.10;56.10;;;;;;5019602;28;21197;-70
2022/04/21 11:29:48;;;;;;;5.73;5.23;;;18.10;56.30;;;;;;5018029;28;20441;-71
2022/04/21 11:32:18;;;;;;;5.93;5.00;;;18.20;55.90;;;;;;5019933;28;20439;-71
2022/04/21 11:35:16;;;;;;;6.17;4.70;;;18.10;55.40;;;;;;5016651;28;20478;-71
2022/04/21 11:37:45;;;;;;;7.30;6.60;;;18.20;56.60;;;;;;5019155;28;20439;-70
2022/04/21 11:40:31;;;;;;;8.50;6.70;;;18.40;56.80;;;;;;5019099;28;20490;-71
2022/04/21 11:42:59;;;;;;;6.47;5.80;;;18.60;56.40;;;;;;5011904;28;20460;-70
2022/04/21 11:45:29;;;;;;;6.57;5.97;;;18.70;55.80;;;;;;5013424;28;20532;-71
2022/04/21 11:47:55;;;;;;;7.07;6.37;;;18.90;55.60;;;;;;4994648;28;22711;-70
2022/04/21 11:50:31;;;;;;;6.33;5.80;;;19.00;55.50;;;;;;5014222;28;20790;-72
2022/04/21 11:52:57;;;;;;;6.67;5.97;;;19.20;55.50;;;;;;5009307;28;21064;-72
2022/04/21 11:55:28;;;;;;;5.93;5.33;;;19.40;55.10;;;;;;5010467;28;20436;-70
2022/04/21 11:57:55;;;;;;;7.30;5.63;;;19.60;55.90;;;;;;5011289;28;20983;-71
2022/04/21 12:08:44;;;;;;;7.13;6.47;;;20.70;53.20;;;;;;5011560;28;20538;-71
2022/04/21 12:11:12;;;;;;;8.80;6.30;;;21.20;53.00;;;;;;5008654;28;20423;-71
2022/04/21 12:13:38;;;;;;;6.30;5.70;;;21.80;52.00;;;;;;5010734;28;20427;-70
2022/04/21 12:16:04;;;;;;;5.83;5.33;;;22.30;51.10;;;;;;5010699;28;20442;-69
2022/04/21 12:18:50;;;;;;;6.63;6.13;;;22.40;50.10;;;;;;5011494;28;20439;-69
2022/04/21 12:21:19;;;;;;;6.70;6.10;;;22.10;50.30;;;;;;5007626;28;20455;-70
2022/04/21 12:23:44;;;;;;;6.57;5.97;;;21.80;50.50;;;;;;5008035;28;20446;-69
2022/04/21 12:26:10;;;;;;;7.13;6.40;;;21.60;51.00;;;;;;5008509;28;20445;-68
2022/04/21 12:28:48;;;;;;;5.70;5.20;;;21.70;51.40;;;;;;5007737;28;20193;-70
2022/04/21 12:31:19;;;;;;;6.07;5.33;;;22.00;51.40;;;;;;5003623;28;20303;-71
2022/04/21 12:33:45;;;;;;;7.60;6.90;;;22.60;50.80;;;;;;5009567;28;20443;-71
2022/04/21 12:36:11;;;;;;;6.50;5.97;;;22.80;49.70;;;;;;5011435;28;21048;-71
2022/04/21 12:39:08;;;;;;;7.90;5.70;;;23.20;49.30;;;;;;5008650;28;20439;-70
2022/04/21 12:41:35;;;;;;;5.47;4.97;;;23.70;48.90;;;;;;4996739;28;20648;-70
2022/04/21 12:44:01;;;;;;;6.70;6.10;;;23.70;48.90;;;;;;5009798;28;20467;-71
2022/04/21 12:46:28;;;;;;;6.03;5.43;;;23.50;47.80;;;;;;5007312;28;20424;-70
2022/04/21 12:48:54;;;;;;;6.43;5.47;;;23.30;48.60;;;;;;5008815;28;20249;-70
2022/04/21 12:51:20;;;;;;;6.53;5.70;;;23.40;48.40;;;;;;5007719;28;20462;-69
2022/04/21 12:53:57;;;;;;;6.60;6.00;;;23.40;47.80;;;;;;5014534;28;21201;-71
2022/04/21 12:56:38;;;;;;;6.20;5.70;;;23.50;48.20;;;;;;5010414;28;20434;-69
2022/04/21 12:59:03;;;;;;;6.10;5.50;;;23.70;47.80;;;;;;5016054;28;20435;-69
2022/04/21 13:01:29;;;;;;;6.07;5.47;;;23.60;47.90;;;;;;5017614;28;20491;-70
2022/04/21 13:03:59;;;;;;;5.37;4.93;;;23.00;47.30;;;;;;5014820;28;20264;-69
2022/04/21 13:06:29;;;;;;;6.17;5.60;;;22.60;47.60;;;;;;5007938;28;20436;-70
2022/04/21 13:08:56;;;;;;;6.40;5.67;;;22.40;48.10;;;;;;5014574;28;20442;-70
2022/04/21 13:11:22;;;;;;;6.17;5.67;;;22.50;49.00;;;;;;5016843;28;20519;-69
2022/04/21 13:13:50;;;;;;;6.23;5.73;;;22.70;48.60;;;;;;5014074;28;20443;-69
2022/04/21 13:16:16;;;;;;;5.80;5.30;;;22.60;48.60;;;;;;5014816;28;20438;-71
2022/04/21 13:18:42;;;;;;;7.03;4.90;;;22.70;48.20;;;;;;5018507;28;20937;-69
2022/04/21 13:23:52;;;;;;;4.67;4.27;;;22.70;48.40;;;;;;5011933;28;20224;-70
2022/04/21 13:26:20;;;;;;;5.63;5.13;;;22.40;48.20;;;;;;5016909;28;20427;-68
2022/04/21 13:28:46;;;;;;;5.93;5.43;;;22.20;48.40;;;;;;5016476;28;20180;-72
2022/04/21 13:33:56;;;;;;;5.13;4.70;;;22.00;49.60;;;;;;5009328;28;20446;-70
2022/04/21 13:36:21;;;;;;;6.50;5.67;;;21.90;49.80;;;;;;5010605;28;21229;-72
2022/04/21 13:38:47;;;;;;;6.30;5.80;;;21.80;49.90;;;;;;5007162;28;20247;-69
2022/04/21 13:41:13;;;;;;;6.63;5.70;;;23.30;50.00;;;;;;5012841;28;20825;-70
2022/04/21 13:43:39;;;;;;;6.60;5.87;;;25.10;48.40;;;;;;5014266;28;20192;-70